sensor_id;sensor_type;location;lat;lon;timestamp;P1;durP1;ratioP1;P2;durP2;ratioP2
18526;SDS011;9393;42.158;24.748;2023-03-14T00:01:37;6.70;;;4.00;;
18526;SDS011;9393;42.158;24.748;2023-03-14T00:04:42;7.47;;;3.77;;
18526;SDS011;9393;42.158;24.748;2023-03-14T00:07:46;6.07;;;4.00;;
18526;SDS011;9393;42.158;24.748;2023-03-14T00:10:51;8.37;;;4.40;;
18526;SDS011;9393;42.158;24.748;2023-03-14T00:13:56;10.00;;;4.70;;
18526;SDS011;9393;42.158;24.748;2023-03-14T00:17:01;6.63;;;4.33;;
18526;SDS011;9393;42.158;24.748;2023-03-14T00:20:06;7.17;;;4.67;;
18526;SDS011;9393;42.158;24.748;2023-03-14T00:23:12;12.87;;;5.13;;
18526;SDS011;9393;42.158;24.748;2023-03-14T00:26:18;14.30;;;6.10;;
18526;SDS011;9393;42.158;24.748;2023-03-14T00:29:24;18.47;;;6.07;;
18526;SDS011;9393;42.158;24.748;2023-03-14T00:32:28;17.10;;;5.60;;
18526;SDS011;9393;42.158;24.748;2023-03-14T00:35:32;10.90;;;5.17;;
18526;SDS011;9393;42.158;24.748;2023-03-14T00:38:37;9.53;;;4.80;;
18526;SDS011;9393;42.158;24.748;2023-03-14T00:41:44;8.23;;;4.67;;
18526;SDS011;9393;42.158;24.748;2023-03-14T00:44:49;8.13;;;4.40;;
18526;SDS011;9393;42.158;24.748;2023-03-14T00:47:53;10.93;;;4.93;;
18526;SDS011;9393;42.158;24.748;2023-03-14T00:50:58;13.53;;;4.67;;
18526;SDS011;9393;42.158;24.748;2023-03-14T00:54:02;6.27;;;4.10;;
18526;SDS011;9393;42.158;24.748;2023-03-14T00:57:08;7.10;;;4.53;;
18526;SDS011;9393;42.158;24.748;2023-03-14T01:00:13;9.17;;;4.40;;
18526;SDS011;9393;42.158;24.748;2023-03-14T01:03:18;9.97;;;4.77;;
18526;SDS011;9393;42.158;24.748;2023-03-14T01:06:24;11.83;;;5.17;;
18526;SDS011;9393;42.158;24.748;2023-03-14T01:09:29;8.80;;;5.30;;
18526;SDS011;9393;42.158;24.748;2023-03-14T01:12:35;9.57;;;5.73;;
18526;SDS011;9393;42.158;24.748;2023-03-14T01:15:39;9.77;;;6.37;;
18526;SDS011;9393;42.158;24.748;2023-03-14T01:18:45;11.00;;;7.03;;
18526;SDS011;9393;42.158;24.748;2023-03-14T01:21:50;12.37;;;6.47;;
18526;SDS011;9393;42.158;24.748;2023-03-14T01:24:55;12.97;;;6.80;;
18526;SDS011;9393;42.158;24.748;2023-03-14T01:28:00;11.13;;;6.00;;
18526;SDS011;9393;42.158;24.748;2023-03-14T01:31:05;10.10;;;6.27;;
18526;SDS011;9393;42.158;24.748;2023-03-14T01:34:11;12.00;;;6.57;;
18526;SDS011;9393;42.158;24.748;2023-03-14T01:37:16;12.03;;;6.67;;
18526;SDS011;9393;42.158;24.748;2023-03-14T01:40:21;12.00;;;6.67;;
18526;SDS011;9393;42.158;24.748;2023-03-14T01:43:27;11.17;;;6.87;;
18526;SDS011;9393;42.158;24.748;2023-03-14T01:46:36;14.37;;;7.20;;
18526;SDS011;9393;42.158;24.748;2023-03-14T01:49:42;15.10;;;7.60;;
18526;SDS011;9393;42.158;24.748;2023-03-14T01:52:47;13.67;;;7.53;;
18526;SDS011;9393;42.158;24.748;2023-03-14T01:55:54;13.43;;;7.63;;
18526;SDS011;9393;42.158;24.748;2023-03-14T01:59:02;12.93;;;7.60;;
18526;SDS011;9393;42.158;24.748;2023-03-14T02:02:09;18.13;;;7.80;;
18526;SDS011;9393;42.158;24.748;2023-03-14T02:05:17;12.83;;;7.57;;
18526;SDS011;9393;42.158;24.748;2023-03-14T02:08:36;14.90;;;7.60;;
18526;SDS011;9393;42.158;24.748;2023-03-14T02:11:49;14.53;;;7.60;;
18526;SDS011;9393;42.158;24.748;2023-03-14T02:15:18;13.50;;;7.73;;
18526;SDS011;9393;42.158;24.748;2023-03-14T02:18:45;15.53;;;8.27;;
18526;SDS011;9393;42.158;24.748;2023-03-14T02:22:16;12.03;;;7.67;;
18526;SDS011;9393;42.158;24.748;2023-03-14T02:25:30;13.00;;;7.87;;
18526;SDS011;9393;42.158;24.748;2023-03-14T02:28:44;19.50;;;8.57;;
18526;SDS011;9393;42.158;24.748;2023-03-14T02:31:48;16.97;;;7.80;;
18526;SDS011;9393;42.158;24.748;2023-03-14T02:34:53;13.00;;;8.60;;
18526;SDS011;9393;42.158;24.748;2023-03-14T02:38:00;13.30;;;7.70;;
18526;SDS011;9393;42.158;24.748;2023-03-14T02:41:14;15.77;;;8.47;;
18526;SDS011;9393;42.158;24.748;2023-03-14T02:44:28;14.67;;;7.73;;
18526;SDS011;9393;42.158;24.748;2023-03-14T02:47:33;15.10;;;8.30;;
18526;SDS011;9393;42.158;24.748;2023-03-14T02:50:40;17.50;;;8.13;;
18526;SDS011;9393;42.158;24.748;2023-03-14T02:53:45;14.77;;;8.40;;
18526;SDS011;9393;42.158;24.748;2023-03-14T02:56:50;14.23;;;8.10;;
18526;SDS011;9393;42.158;24.748;2023-03-14T02:59:56;15.07;;;7.43;;
18526;SDS011;9393;42.158;24.748;2023-03-14T03:03:08;15.37;;;8.10;;
18526;SDS011;9393;42.158;24.748;2023-03-14T03:06:12;12.13;;;7.40;;
18526;SDS011;9393;42.158;24.748;2023-03-14T03:09:17;16.50;;;8.37;;
18526;SDS011;9393;42.158;24.748;2023-03-14T03:12:22;14.83;;;7.37;;
18526;SDS011;9393;42.158;24.748;2023-03-14T03:15:28;15.63;;;8.50;;
18526;SDS011;9393;42.158;24.748;2023-03-14T03:18:32;16.73;;;8.77;;
18526;SDS011;9393;42.158;24.748;2023-03-14T03:21:36;15.80;;;9.57;;
18526;SDS011;9393;42.158;24.748;2023-03-14T03:24:40;22.13;;;9.17;;
18526;SDS011;9393;42.158;24.748;2023-03-14T03:27:45;19.30;;;9.57;;
18526;SDS011;9393;42.158;24.748;2023-03-14T03:30:53;17.43;;;9.30;;
18526;SDS011;9393;42.158;24.748;2023-03-14T03:33:57;15.43;;;8.27;;
18526;SDS011;9393;42.158;24.748;2023-03-14T03:37:02;14.90;;;8.73;;
18526;SDS011;9393;42.158;24.748;2023-03-14T03:40:11;16.47;;;9.47;;
18526;SDS011;9393;42.158;24.748;2023-03-14T03:43:16;18.23;;;9.77;;
18526;SDS011;9393;42.158;24.748;2023-03-14T03:46:24;19.73;;;9.60;;
18526;SDS011;9393;42.158;24.748;2023-03-14T03:49:28;17.40;;;8.97;;
18526;SDS011;9393;42.158;24.748;2023-03-14T03:52:34;19.53;;;9.70;;
18526;SDS011;9393;42.158;24.748;2023-03-14T03:55:40;19.70;;;9.57;;
18526;SDS011;9393;42.158;24.748;2023-03-14T03:58:45;17.13;;;9.37;;
18526;SDS011;9393;42.158;24.748;2023-03-14T04:01:50;16.07;;;9.10;;
18526;SDS011;9393;42.158;24.748;2023-03-14T04:04:55;17.33;;;9.90;;
18526;SDS011;9393;42.158;24.748;2023-03-14T04:07:59;19.20;;;9.90;;
18526;SDS011;9393;42.158;24.748;2023-03-14T04:11:04;16.97;;;9.80;;
18526;SDS011;9393;42.158;24.748;2023-03-14T04:14:22;19.63;;;10.53;;
18526;SDS011;9393;42.158;24.748;2023-03-14T04:17:42;22.13;;;9.50;;
18526;SDS011;9393;42.158;24.748;2023-03-14T04:20:50;15.87;;;9.40;;
18526;SDS011;9393;42.158;24.748;2023-03-14T04:23:57;20.73;;;9.70;;
18526;SDS011;9393;42.158;24.748;2023-03-14T04:27:05;25.67;;;10.37;;
18526;SDS011;9393;42.158;24.748;2023-03-14T04:30:10;25.53;;;10.40;;
18526;SDS011;9393;42.158;24.748;2023-03-14T04:33:23;18.07;;;10.70;;
18526;SDS011;9393;42.158;24.748;2023-03-14T04:36:31;22.33;;;10.33;;
18526;SDS011;9393;42.158;24.748;2023-03-14T04:39:39;27.70;;;10.77;;
18526;SDS011;9393;42.158;24.748;2023-03-14T04:43:09;27.63;;;11.50;;
18526;SDS011;9393;42.158;24.748;2023-03-14T04:46:25;23.67;;;11.60;;
18526;SDS011;9393;42.158;24.748;2023-03-14T04:49:31;30.20;;;12.23;;
18526;SDS011;9393;42.158;24.748;2023-03-14T04:52:35;36.40;;;11.27;;
18526;SDS011;9393;42.158;24.748;2023-03-14T04:55:40;27.00;;;11.77;;
18526;SDS011;9393;42.158;24.748;2023-03-14T04:58:44;27.63;;;13.43;;
18526;SDS011;9393;42.158;24.748;2023-03-14T05:01:51;38.27;;;12.93;;
18526;SDS011;9393;42.158;24.748;2023-03-14T05:05:15;35.27;;;15.07;;
18526;SDS011;9393;42.158;24.748;2023-03-14T05:08:55;45.47;;;15.00;;
18526;SDS011;9393;42.158;24.748;2023-03-14T05:12:17;37.27;;;14.83;;
18526;SDS011;9393;42.158;24.748;2023-03-14T05:15:41;38.20;;;18.10;;
18526;SDS011;9393;42.158;24.748;2023-03-14T05:19:11;35.87;;;17.80;;
18526;SDS011;9393;42.158;24.748;2023-03-14T05:22:35;30.60;;;17.77;;
18526;SDS011;9393;42.158;24.748;2023-03-14T05:25:49;33.67;;;14.53;;
18526;SDS011;9393;42.158;24.748;2023-03-14T05:29:02;30.00;;;14.23;;
18526;SDS011;9393;42.158;24.748;2023-03-14T05:32:18;30.23;;;14.07;;
18526;SDS011;9393;42.158;24.748;2023-03-14T05:35:29;34.00;;;12.97;;
18526;SDS011;9393;42.158;24.748;2023-03-14T05:38:55;27.23;;;13.27;;
18526;SDS011;9393;42.158;24.748;2023-03-14T05:42:13;22.00;;;12.10;;
18526;SDS011;9393;42.158;24.748;2023-03-14T05:45:28;29.30;;;13.57;;
18526;SDS011;9393;42.158;24.748;2023-03-14T05:48:57;33.23;;;14.47;;
18526;SDS011;9393;42.158;24.748;2023-03-14T05:52:02;39.40;;;14.30;;
18526;SDS011;9393;42.158;24.748;2023-03-14T05:55:11;24.90;;;12.63;;
18526;SDS011;9393;42.158;24.748;2023-03-14T05:58:44;26.67;;;12.77;;
18526;SDS011;9393;42.158;24.748;2023-03-14T06:02:15;25.23;;;12.07;;
18526;SDS011;9393;42.158;24.748;2023-03-14T06:05:31;29.13;;;12.00;;
18526;SDS011;9393;42.158;24.748;2023-03-14T06:08:36;19.73;;;11.63;;
18526;SDS011;9393;42.158;24.748;2023-03-14T06:11:45;20.20;;;12.20;;
18526;SDS011;9393;42.158;24.748;2023-03-14T06:14:49;22.17;;;12.13;;
18526;SDS011;9393;42.158;24.748;2023-03-14T06:17:54;24.70;;;11.37;;
18526;SDS011;9393;42.158;24.748;2023-03-14T06:21:00;25.83;;;12.70;;
18526;SDS011;9393;42.158;24.748;2023-03-14T06:24:05;28.10;;;12.00;;
18526;SDS011;9393;42.158;24.748;2023-03-14T06:27:19;20.87;;;12.07;;
18526;SDS011;9393;42.158;24.748;2023-03-14T06:30:28;23.20;;;11.53;;
18526;SDS011;9393;42.158;24.748;2023-03-14T06:33:32;24.57;;;11.40;;
18526;SDS011;9393;42.158;24.748;2023-03-14T06:36:37;26.87;;;11.50;;
18526;SDS011;9393;42.158;24.748;2023-03-14T06:39:42;20.10;;;11.80;;
18526;SDS011;9393;42.158;24.748;2023-03-14T06:42:58;21.30;;;11.97;;
18526;SDS011;9393;42.158;24.748;2023-03-14T06:46:05;26.03;;;12.23;;
18526;SDS011;9393;42.158;24.748;2023-03-14T06:49:12;24.13;;;11.47;;
18526;SDS011;9393;42.158;24.748;2023-03-14T06:52:17;28.13;;;11.63;;
18526;SDS011;9393;42.158;24.748;2023-03-14T06:55:21;21.23;;;10.53;;
18526;SDS011;9393;42.158;24.748;2023-03-14T06:58:28;34.37;;;10.53;;
18526;SDS011;9393;42.158;24.748;2023-03-14T07:01:34;27.60;;;10.20;;
18526;SDS011;9393;42.158;24.748;2023-03-14T07:04:41;20.27;;;10.50;;
18526;SDS011;9393;42.158;24.748;2023-03-14T07:07:45;23.43;;;9.60;;
18526;SDS011;9393;42.158;24.748;2023-03-14T07:10:50;22.30;;;9.10;;
18526;SDS011;9393;42.158;24.748;2023-03-14T07:13:56;22.20;;;9.60;;
18526;SDS011;9393;42.158;24.748;2023-03-14T07:17:00;18.60;;;9.20;;
18526;SDS011;9393;42.158;24.748;2023-03-14T07:20:05;22.40;;;9.47;;
18526;SDS011;9393;42.158;24.748;2023-03-14T07:23:11;26.20;;;9.87;;
18526;SDS011;9393;42.158;24.748;2023-03-14T07:26:22;21.20;;;8.47;;
18526;SDS011;9393;42.158;24.748;2023-03-14T07:29:28;17.67;;;8.33;;
18526;SDS011;9393;42.158;24.748;2023-03-14T07:32:35;18.60;;;8.77;;
18526;SDS011;9393;42.158;24.748;2023-03-14T07:35:40;21.13;;;9.60;;
18526;SDS011;9393;42.158;24.748;2023-03-14T07:38:45;20.03;;;9.80;;
18526;SDS011;9393;42.158;24.748;2023-03-14T07:42:02;24.07;;;11.13;;
18526;SDS011;9393;42.158;24.748;2023-03-14T07:45:08;22.43;;;10.60;;
18526;SDS011;9393;42.158;24.748;2023-03-14T07:48:14;18.97;;;10.10;;
18526;SDS011;9393;42.158;24.748;2023-03-14T07:51:18;16.50;;;10.17;;
18526;SDS011;9393;42.158;24.748;2023-03-14T07:54:22;21.73;;;11.47;;
18526;SDS011;9393;42.158;24.748;2023-03-14T07:57:26;23.43;;;10.67;;
18526;SDS011;9393;42.158;24.748;2023-03-14T08:00:32;19.63;;;10.00;;
18526;SDS011;9393;42.158;24.748;2023-03-14T08:03:36;17.57;;;8.93;;
18526;SDS011;9393;42.158;24.748;2023-03-14T08:06:41;15.47;;;9.97;;
18526;SDS011;9393;42.158;24.748;2023-03-14T08:09:45;18.63;;;9.70;;
18526;SDS011;9393;42.158;24.748;2023-03-14T08:12:49;18.17;;;9.63;;
18526;SDS011;9393;42.158;24.748;2023-03-14T08:15:55;23.27;;;10.50;;
18526;SDS011;9393;42.158;24.748;2023-03-14T08:18:59;16.97;;;10.83;;
18526;SDS011;9393;42.158;24.748;2023-03-14T08:22:03;18.93;;;9.67;;
18526;SDS011;9393;42.158;24.748;2023-03-14T08:25:08;16.17;;;9.53;;
18526;SDS011;9393;42.158;24.748;2023-03-14T08:28:12;15.70;;;9.37;;
18526;SDS011;9393;42.158;24.748;2023-03-14T08:31:18;13.53;;;8.83;;
18526;SDS011;9393;42.158;24.748;2023-03-14T08:34:23;16.57;;;9.80;;
18526;SDS011;9393;42.158;24.748;2023-03-14T08:37:27;14.77;;;9.37;;
18526;SDS011;9393;42.158;24.748;2023-03-14T08:40:31;20.00;;;9.80;;
18526;SDS011;9393;42.158;24.748;2023-03-14T08:43:35;17.87;;;10.00;;
18526;SDS011;9393;42.158;24.748;2023-03-14T08:46:41;15.23;;;9.57;;
18526;SDS011;9393;42.158;24.748;2023-03-14T08:49:45;16.43;;;9.07;;
18526;SDS011;9393;42.158;24.748;2023-03-14T08:52:49;17.40;;;9.27;;
18526;SDS011;9393;42.158;24.748;2023-03-14T08:55:54;12.77;;;9.13;;
18526;SDS011;9393;42.158;24.748;2023-03-14T08:58:58;17.53;;;9.33;;
18526;SDS011;9393;42.158;24.748;2023-03-14T09:02:04;15.93;;;8.33;;
18526;SDS011;9393;42.158;24.748;2023-03-14T09:05:09;12.63;;;8.10;;
18526;SDS011;9393;42.158;24.748;2023-03-14T09:08:14;16.03;;;9.43;;
18526;SDS011;9393;42.158;24.748;2023-03-14T09:11:18;12.93;;;8.37;;
18526;SDS011;9393;42.158;24.748;2023-03-14T09:14:22;16.07;;;8.07;;
18526;SDS011;9393;42.158;24.748;2023-03-14T09:17:28;16.73;;;7.77;;
18526;SDS011;9393;42.158;24.748;2023-03-14T09:20:33;13.70;;;8.17;;
18526;SDS011;9393;42.158;24.748;2023-03-14T09:23:37;15.80;;;8.23;;
18526;SDS011;9393;42.158;24.748;2023-03-14T09:26:43;7.77;;;5.70;;
18526;SDS011;9393;42.158;24.748;2023-03-14T09:29:47;9.63;;;5.77;;
18526;SDS011;9393;42.158;24.748;2023-03-14T09:32:52;11.10;;;5.77;;
18526;SDS011;9393;42.158;24.748;2023-03-14T09:35:58;15.73;;;6.00;;
18526;SDS011;9393;42.158;24.748;2023-03-14T09:39:02;12.83;;;6.47;;
18526;SDS011;9393;42.158;24.748;2023-03-14T09:42:07;12.33;;;5.37;;
18526;SDS011;9393;42.158;24.748;2023-03-14T09:45:19;12.77;;;6.00;;
18526;SDS011;9393;42.158;24.748;2023-03-14T09:48:32;10.60;;;5.53;;
18526;SDS011;9393;42.158;24.748;2023-03-14T09:51:38;15.13;;;5.60;;
18526;SDS011;9393;42.158;24.748;2023-03-14T09:54:45;8.73;;;4.90;;
18526;SDS011;9393;42.158;24.748;2023-03-14T09:57:54;6.67;;;5.30;;
18526;SDS011;9393;42.158;24.748;2023-03-14T10:01:02;7.50;;;4.07;;
18526;SDS011;9393;42.158;24.748;2023-03-14T10:04:10;8.43;;;4.83;;
18526;SDS011;9393;42.158;24.748;2023-03-14T10:07:19;7.03;;;4.60;;
18526;SDS011;9393;42.158;24.748;2023-03-14T10:10:29;9.50;;;4.90;;
18526;SDS011;9393;42.158;24.748;2023-03-14T10:13:34;8.30;;;4.57;;
18526;SDS011;9393;42.158;24.748;2023-03-14T10:16:40;5.50;;;4.20;;
18526;SDS011;9393;42.158;24.748;2023-03-14T10:19:54;6.27;;;4.07;;
18526;SDS011;9393;42.158;24.748;2023-03-14T10:22:59;8.10;;;4.10;;
18526;SDS011;9393;42.158;24.748;2023-03-14T10:26:06;7.07;;;3.97;;
18526;SDS011;9393;42.158;24.748;2023-03-14T10:29:12;7.97;;;4.83;;
18526;SDS011;9393;42.158;24.748;2023-03-14T10:32:19;11.67;;;4.50;;
18526;SDS011;9393;42.158;24.748;2023-03-14T10:35:26;5.90;;;4.43;;
18526;SDS011;9393;42.158;24.748;2023-03-14T10:38:30;6.23;;;4.20;;
18526;SDS011;9393;42.158;24.748;2023-03-14T10:41:36;9.50;;;4.47;;
18526;SDS011;9393;42.158;24.748;2023-03-14T10:44:40;7.07;;;4.40;;
18526;SDS011;9393;42.158;24.748;2023-03-14T10:47:47;7.00;;;4.10;;
18526;SDS011;9393;42.158;24.748;2023-03-14T10:50:57;5.57;;;4.40;;
18526;SDS011;9393;42.158;24.748;2023-03-14T10:54:12;5.17;;;3.80;;
18526;SDS011;9393;42.158;24.748;2023-03-14T10:57:19;5.87;;;4.33;;
18526;SDS011;9393;42.158;24.748;2023-03-14T11:00:24;6.63;;;4.57;;
18526;SDS011;9393;42.158;24.748;2023-03-14T11:03:29;6.20;;;3.87;;
18526;SDS011;9393;42.158;24.748;2023-03-14T11:06:38;5.63;;;4.20;;
18526;SDS011;9393;42.158;24.748;2023-03-14T11:09:48;6.80;;;4.60;;
18526;SDS011;9393;42.158;24.748;2023-03-14T11:13:01;9.27;;;4.37;;
18526;SDS011;9393;42.158;24.748;2023-03-14T11:16:14;5.67;;;4.00;;
18526;SDS011;9393;42.158;24.748;2023-03-14T11:19:32;7.13;;;4.97;;
18526;SDS011;9393;42.158;24.748;2023-03-14T11:22:47;8.90;;;4.67;;
18526;SDS011;9393;42.158;24.748;2023-03-14T11:25:59;7.03;;;4.70;;
18526;SDS011;9393;42.158;24.748;2023-03-14T11:29:18;9.37;;;4.23;;
18526;SDS011;9393;42.158;24.748;2023-03-14T11:32:28;8.07;;;4.33;;
18526;SDS011;9393;42.158;24.748;2023-03-14T11:35:43;6.73;;;4.20;;
18526;SDS011;9393;42.158;24.748;2023-03-14T11:39:34;6.87;;;3.80;;
18526;SDS011;9393;42.158;24.748;2023-03-14T11:42:42;4.93;;;3.50;;
18526;SDS011;9393;42.158;24.748;2023-03-14T11:45:48;7.37;;;4.10;;
18526;SDS011;9393;42.158;24.748;2023-03-14T11:48:57;5.70;;;4.03;;
18526;SDS011;9393;42.158;24.748;2023-03-14T11:52:09;7.30;;;3.50;;
18526;SDS011;9393;42.158;24.748;2023-03-14T11:55:20;5.17;;;3.60;;
18526;SDS011;9393;42.158;24.748;2023-03-14T11:58:29;5.00;;;3.73;;
18526;SDS011;9393;42.158;24.748;2023-03-14T12:01:42;6.20;;;3.20;;
18526;SDS011;9393;42.158;24.748;2023-03-14T12:04:58;7.30;;;3.40;;
18526;SDS011;9393;42.158;24.748;2023-03-14T12:08:42;10.77;;;3.30;;
18526;SDS011;9393;42.158;24.748;2023-03-14T12:11:51;4.83;;;3.80;;
18526;SDS011;9393;42.158;24.748;2023-03-14T12:14:58;7.80;;;3.77;;
18526;SDS011;9393;42.158;24.748;2023-03-14T12:18:12;4.97;;;3.60;;
18526;SDS011;9393;42.158;24.748;2023-03-14T12:21:42;5.50;;;3.50;;
18526;SDS011;9393;42.158;24.748;2023-03-14T12:24:51;5.07;;;3.87;;
18526;SDS011;9393;42.158;24.748;2023-03-14T12:34:42;11.23;;;5.73;;
18526;SDS011;9393;42.158;24.748;2023-03-14T12:37:48;8.97;;;5.50;;
18526;SDS011;9393;42.158;24.748;2023-03-14T12:40:58;5.97;;;4.00;;
18526;SDS011;9393;42.158;24.748;2023-03-14T12:47:51;6.57;;;3.83;;
18526;SDS011;9393;42.158;24.748;2023-03-14T12:51:00;8.70;;;3.87;;
18526;SDS011;9393;42.158;24.748;2023-03-14T12:54:10;5.80;;;3.70;;
18526;SDS011;9393;42.158;24.748;2023-03-14T12:57:27;8.03;;;4.47;;
18526;SDS011;9393;42.158;24.748;2023-03-14T13:00:39;7.80;;;4.40;;
18526;SDS011;9393;42.158;24.748;2023-03-14T13:03:45;6.90;;;4.53;;
18526;SDS011;9393;42.158;24.748;2023-03-14T13:06:57;10.57;;;5.17;;
18526;SDS011;9393;42.158;24.748;2023-03-14T13:10:15;10.70;;;5.07;;
18526;SDS011;9393;42.158;24.748;2023-03-14T13:13:23;7.53;;;4.40;;
18526;SDS011;9393;42.158;24.748;2023-03-14T13:16:30;7.70;;;4.77;;
18526;SDS011;9393;42.158;24.748;2023-03-14T13:19:34;6.40;;;4.60;;
18526;SDS011;9393;42.158;24.748;2023-03-14T13:22:39;11.33;;;4.93;;
18526;SDS011;9393;42.158;24.748;2023-03-14T13:25:50;6.80;;;4.17;;
18526;SDS011;9393;42.158;24.748;2023-03-14T13:28:55;6.57;;;4.13;;
18526;SDS011;9393;42.158;24.748;2023-03-14T13:32:01;11.23;;;4.70;;
18526;SDS011;9393;42.158;24.748;2023-03-14T13:35:17;6.10;;;4.80;;
18526;SDS011;9393;42.158;24.748;2023-03-14T13:38:25;7.27;;;4.53;;
18526;SDS011;9393;42.158;24.748;2023-03-14T13:41:30;8.87;;;4.17;;
18526;SDS011;9393;42.158;24.748;2023-03-14T13:44:36;8.00;;;4.57;;
18526;SDS011;9393;42.158;24.748;2023-03-14T13:47:43;10.07;;;4.53;;
18526;SDS011;9393;42.158;24.748;2023-03-14T13:50:54;5.53;;;4.27;;
18526;SDS011;9393;42.158;24.748;2023-03-14T13:54:02;6.43;;;4.37;;
18526;SDS011;9393;42.158;24.748;2023-03-14T13:57:06;6.30;;;4.67;;
18526;SDS011;9393;42.158;24.748;2023-03-14T14:00:17;9.27;;;4.33;;
18526;SDS011;9393;42.158;24.748;2023-03-14T14:03:24;7.43;;;4.37;;
18526;SDS011;9393;42.158;24.748;2023-03-14T14:06:29;6.83;;;4.30;;
18526;SDS011;9393;42.158;24.748;2023-03-14T14:09:35;7.93;;;4.90;;
18526;SDS011;9393;42.158;24.748;2023-03-14T14:12:42;4.77;;;3.90;;
18526;SDS011;9393;42.158;24.748;2023-03-14T14:15:52;6.03;;;3.80;;
18526;SDS011;9393;42.158;24.748;2023-03-14T14:19:00;7.50;;;3.83;;
18526;SDS011;9393;42.158;24.748;2023-03-14T14:22:07;10.00;;;4.37;;
18526;SDS011;9393;42.158;24.748;2023-03-14T14:25:13;6.23;;;4.37;;
18526;SDS011;9393;42.158;24.748;2023-03-14T14:28:22;6.90;;;4.47;;
18526;SDS011;9393;42.158;24.748;2023-03-14T14:31:30;6.27;;;3.83;;
18526;SDS011;9393;42.158;24.748;2023-03-14T14:34:39;3.90;;;3.27;;
18526;SDS011;9393;42.158;24.748;2023-03-14T14:37:51;6.67;;;3.90;;
18526;SDS011;9393;42.158;24.748;2023-03-14T14:40:59;7.63;;;4.27;;
18526;SDS011;9393;42.158;24.748;2023-03-14T14:44:05;6.83;;;4.07;;
18526;SDS011;9393;42.158;24.748;2023-03-14T14:47:12;6.43;;;3.47;;
18526;SDS011;9393;42.158;24.748;2023-03-14T14:50:26;7.73;;;4.70;;
18526;SDS011;9393;42.158;24.748;2023-03-14T14:53:35;6.83;;;5.00;;
18526;SDS011;9393;42.158;24.748;2023-03-14T14:56:45;9.27;;;4.07;;
18526;SDS011;9393;42.158;24.748;2023-03-14T14:59:54;5.93;;;4.70;;
18526;SDS011;9393;42.158;24.748;2023-03-14T15:02:59;8.77;;;5.40;;
18526;SDS011;9393;42.158;24.748;2023-03-14T15:06:05;8.00;;;4.60;;
18526;SDS011;9393;42.158;24.748;2023-03-14T15:09:12;8.90;;;4.60;;
18526;SDS011;9393;42.158;24.748;2023-03-14T15:12:18;8.17;;;4.97;;
18526;SDS011;9393;42.158;24.748;2023-03-14T15:15:23;9.13;;;4.70;;
18526;SDS011;9393;42.158;24.748;2023-03-14T15:18:28;11.47;;;4.87;;
18526;SDS011;9393;42.158;24.748;2023-03-14T15:21:35;9.80;;;5.03;;
18526;SDS011;9393;42.158;24.748;2023-03-14T15:24:39;6.60;;;4.80;;
18526;SDS011;9393;42.158;24.748;2023-03-14T15:27:43;9.63;;;5.07;;
18526;SDS011;9393;42.158;24.748;2023-03-14T15:30:48;10.90;;;5.93;;
18526;SDS011;9393;42.158;24.748;2023-03-14T15:33:53;9.33;;;5.27;;
18526;SDS011;9393;42.158;24.748;2023-03-14T15:36:59;8.47;;;4.80;;
18526;SDS011;9393;42.158;24.748;2023-03-14T15:40:09;8.03;;;4.77;;
18526;SDS011;9393;42.158;24.748;2023-03-14T15:43:17;11.40;;;6.10;;
18526;SDS011;9393;42.158;24.748;2023-03-14T15:46:21;15.20;;;6.30;;
18526;SDS011;9393;42.158;24.748;2023-03-14T15:49:26;9.43;;;5.40;;
18526;SDS011;9393;42.158;24.748;2023-03-14T15:52:31;7.20;;;4.50;;
18526;SDS011;9393;42.158;24.748;2023-03-14T15:55:36;15.27;;;6.70;;
18526;SDS011;9393;42.158;24.748;2023-03-14T15:58:40;17.37;;;8.17;;
18526;SDS011;9393;42.158;24.748;2023-03-14T16:01:48;14.00;;;6.53;;
18526;SDS011;9393;42.158;24.748;2023-03-14T16:04:52;32.67;;;12.17;;
18526;SDS011;9393;42.158;24.748;2023-03-14T16:07:58;20.53;;;9.17;;
18526;SDS011;9393;42.158;24.748;2023-03-14T16:11:03;10.80;;;5.07;;
18526;SDS011;9393;42.158;24.748;2023-03-14T16:14:08;14.40;;;4.80;;
18526;SDS011;9393;42.158;24.748;2023-03-14T16:17:12;28.03;;;12.57;;
18526;SDS011;9393;42.158;24.748;2023-03-14T16:20:17;17.73;;;9.30;;
18526;SDS011;9393;42.158;24.748;2023-03-14T16:23:23;19.30;;;9.60;;
18526;SDS011;9393;42.158;24.748;2023-03-14T16:26:28;9.70;;;6.83;;
18526;SDS011;9393;42.158;24.748;2023-03-14T16:29:35;20.70;;;10.90;;
18526;SDS011;9393;42.158;24.748;2023-03-14T16:32:40;17.83;;;11.90;;
18526;SDS011;9393;42.158;24.748;2023-03-14T16:35:53;7.20;;;5.47;;
18526;SDS011;9393;42.158;24.748;2023-03-14T16:39:00;10.17;;;6.40;;
18526;SDS011;9393;42.158;24.748;2023-03-14T16:42:04;10.70;;;7.77;;
18526;SDS011;9393;42.158;24.748;2023-03-14T16:45:09;10.27;;;6.97;;
18526;SDS011;9393;42.158;24.748;2023-03-14T16:48:13;9.47;;;6.10;;
18526;SDS011;9393;42.158;24.748;2023-03-14T16:51:17;12.17;;;5.30;;
18526;SDS011;9393;42.158;24.748;2023-03-14T16:54:23;8.13;;;5.53;;
18526;SDS011;9393;42.158;24.748;2023-03-14T16:57:27;9.17;;;4.93;;
18526;SDS011;9393;42.158;24.748;2023-03-14T17:00:32;7.83;;;4.80;;
18526;SDS011;9393;42.158;24.748;2023-03-14T17:03:36;9.67;;;4.60;;
18526;SDS011;9393;42.158;24.748;2023-03-14T17:06:41;9.67;;;5.07;;
18526;SDS011;9393;42.158;24.748;2023-03-14T17:09:48;7.93;;;5.20;;
18526;SDS011;9393;42.158;24.748;2023-03-14T17:12:52;7.30;;;4.87;;
18526;SDS011;9393;42.158;24.748;2023-03-14T17:15:57;14.00;;;6.00;;
18526;SDS011;9393;42.158;24.748;2023-03-14T17:19:02;15.43;;;5.60;;
18526;SDS011;9393;42.158;24.748;2023-03-14T17:22:07;10.43;;;5.63;;
18526;SDS011;9393;42.158;24.748;2023-03-14T17:25:26;20.77;;;8.43;;
18526;SDS011;9393;42.158;24.748;2023-03-14T17:28:30;27.33;;;11.90;;
18526;SDS011;9393;42.158;24.748;2023-03-14T17:31:35;32.97;;;16.93;;
18526;SDS011;9393;42.158;24.748;2023-03-14T17:34:39;30.40;;;16.13;;
18526;SDS011;9393;42.158;24.748;2023-03-14T17:37:43;26.93;;;12.30;;
18526;SDS011;9393;42.158;24.748;2023-03-14T17:40:49;21.87;;;10.47;;
18526;SDS011;9393;42.158;24.748;2023-03-14T17:43:53;23.30;;;12.00;;
18526;SDS011;9393;42.158;24.748;2023-03-14T17:46:58;30.37;;;12.97;;
18526;SDS011;9393;42.158;24.748;2023-03-14T17:50:03;28.40;;;13.57;;
18526;SDS011;9393;42.158;24.748;2023-03-14T17:53:07;26.83;;;11.47;;
18526;SDS011;9393;42.158;24.748;2023-03-14T17:56:13;23.63;;;10.63;;
18526;SDS011;9393;42.158;24.748;2023-03-14T17:59:17;19.53;;;10.57;;
18526;SDS011;9393;42.158;24.748;2023-03-14T18:02:22;16.47;;;10.17;;
18526;SDS011;9393;42.158;24.748;2023-03-14T18:05:27;12.80;;;7.40;;
18526;SDS011;9393;42.158;24.748;2023-03-14T18:08:31;13.50;;;6.53;;
18526;SDS011;9393;42.158;24.748;2023-03-14T18:11:37;13.37;;;6.63;;
18526;SDS011;9393;42.158;24.748;2023-03-14T18:14:41;13.27;;;7.60;;
18526;SDS011;9393;42.158;24.748;2023-03-14T18:17:46;20.87;;;10.87;;
18526;SDS011;9393;42.158;24.748;2023-03-14T18:20:50;16.53;;;8.53;;
18526;SDS011;9393;42.158;24.748;2023-03-14T18:23:55;19.43;;;10.23;;
18526;SDS011;9393;42.158;24.748;2023-03-14T18:27:01;15.73;;;9.47;;
18526;SDS011;9393;42.158;24.748;2023-03-14T18:30:06;15.97;;;9.17;;
18526;SDS011;9393;42.158;24.748;2023-03-14T18:33:11;23.83;;;12.00;;
18526;SDS011;9393;42.158;24.748;2023-03-14T18:36:15;22.40;;;11.83;;
18526;SDS011;9393;42.158;24.748;2023-03-14T18:39:19;21.67;;;12.87;;
18526;SDS011;9393;42.158;24.748;2023-03-14T18:42:25;19.40;;;11.33;;
18526;SDS011;9393;42.158;24.748;2023-03-14T18:45:29;18.47;;;10.40;;
18526;SDS011;9393;42.158;24.748;2023-03-14T18:48:34;22.33;;;11.20;;